createdAt,value
2023-05-14T00:00:20.144Z,20.30
2023-05-14T00:01:23.023Z,20.40
2023-05-14T00:02:26.561Z,20.30
2023-05-14T00:03:29.699Z,20.40
2023-05-14T00:04:32.524Z,20.40
2023-05-14T00:05:35.220Z,20.30
2023-05-14T00:06:37.598Z,20.40
2023-05-14T00:07:40.712Z,20.40
2023-05-14T00:08:43.355Z,20.30
2023-05-14T00:09:45.951Z,20.40
2023-05-14T00:10:48.457Z,20.40
2023-05-14T00:11:51.022Z,20.40
2023-05-14T00:12:54.719Z,20.40
2023-05-14T00:13:57.293Z,20.30
2023-05-14T00:14:59.884Z,20.30
2023-05-14T00:16:03.339Z,20.30
2023-05-14T00:17:07.082Z,20.40
2023-05-14T00:18:12.159Z,20.30
2023-05-14T00:19:15.064Z,20.40
2023-05-14T00:20:17.502Z,20.40
2023-05-14T00:21:20.641Z,20.40
2023-05-14T00:22:23.248Z,20.40
2023-05-14T00:23:25.964Z,20.40
2023-05-14T00:24:28.659Z,20.40
2023-05-14T00:25:31.468Z,20.40
2023-05-14T00:26:33.926Z,20.40
2023-05-14T00:27:38.000Z,20.40
2023-05-14T00:28:41.064Z,20.40
2023-05-14T00:29:43.957Z,20.40
2023-05-14T00:30:46.963Z,20.40
2023-05-14T00:31:49.626Z,20.40
2023-05-14T00:32:52.165Z,20.30
2023-05-14T00:33:54.729Z,20.30
2023-05-14T00:34:57.698Z,20.40
2023-05-14T00:36:00.481Z,20.40
2023-05-14T00:37:02.949Z,20.40
2023-05-14T00:38:05.559Z,20.40
2023-05-14T00:39:08.207Z,20.40
2023-05-14T00:40:12.984Z,20.40
2023-05-14T00:41:15.963Z,20.40
2023-05-14T00:42:18.681Z,20.40
2023-05-14T00:43:22.785Z,20.40
2023-05-14T00:44:25.286Z,20.40
2023-05-14T00:45:28.145Z,20.40
2023-05-14T00:46:30.806Z,20.40
2023-05-14T00:47:34.915Z,20.40
2023-05-14T00:48:37.459Z,20.40
2023-05-14T00:49:41.166Z,20.40
2023-05-14T00:50:43.988Z,20.40
2023-05-14T00:51:47.668Z,20.40
2023-05-14T00:52:50.715Z,20.20
2023-05-14T00:53:54.068Z,19.80
2023-05-14T00:54:58.171Z,19.60
2023-05-14T00:56:00.736Z,19.70
2023-05-14T00:57:04.870Z,19.70
2023-05-14T00:58:11.847Z,19.70
2023-05-14T00:59:14.735Z,19.60
2023-05-14T01:00:17.870Z,19.60
2023-05-14T01:01:20.552Z,19.60
2023-05-14T01:02:23.558Z,19.60
2023-05-14T01:03:26.989Z,19.60
2023-05-14T01:04:29.883Z,19.60
2023-05-14T01:06:05.300Z,19.50
2023-05-14T01:07:22.462Z,19.50
2023-05-14T01:08:33.846Z,19.50
2023-05-14T01:09:45.483Z,19.50
2023-05-14T01:11:35.592Z,19.40
2023-05-14T01:12:56.464Z,19.40
2023-05-14T01:14:18.109Z,19.40
2023-05-14T01:15:28.603Z,19.30
2023-05-14T01:16:33.328Z,19.30
2023-05-14T01:17:42.956Z,19.30
2023-05-14T01:18:48.732Z,19.20
2023-05-14T01:19:52.869Z,19.20
2023-05-14T01:20:55.663Z,19.00
2023-05-14T01:22:01.135Z,19.00
2023-05-14T01:23:03.973Z,18.90
2023-05-14T01:24:08.964Z,18.80
2023-05-14T01:25:11.566Z,18.80
2023-05-14T01:26:14.000Z,18.80
2023-05-14T01:27:29.974Z,18.80
2023-05-14T01:28:36.475Z,18.70
2023-05-14T01:29:43.448Z,18.70
2023-05-14T01:30:51.789Z,18.60
2023-05-14T01:31:56.924Z,18.50
2023-05-14T01:33:03.303Z,18.60
2023-05-14T01:34:08.817Z,18.70
2023-05-14T01:35:11.754Z,18.80
2023-05-14T01:36:14.300Z,18.90
2023-05-14T01:37:19.476Z,18.90
2023-05-14T01:38:23.002Z,19.00
2023-05-14T01:39:26.800Z,19.00
2023-05-14T01:40:31.039Z,19.00
2023-05-14T01:41:33.872Z,19.00
2023-05-14T01:42:38.038Z,19.00
2023-05-14T01:43:41.383Z,19.10
2023-05-14T01:44:44.259Z,19.00
2023-05-14T01:45:46.806Z,19.10
2023-05-14T01:46:49.605Z,19.10
2023-05-14T01:47:52.781Z,19.10
2023-05-14T01:48:55.862Z,19.10
2023-05-14T01:49:58.391Z,19.10
2023-05-14T01:51:02.384Z,19.10
2023-05-14T01:52:05.514Z,19.10
2023-05-14T01:53:08.085Z,19.10
2023-05-14T01:54:10.694Z,19.10
2023-05-14T01:55:13.154Z,19.00
2023-05-14T01:56:15.667Z,18.90
2023-05-14T01:57:18.204Z,18.80
2023-05-14T01:58:20.735Z,18.80
2023-05-14T01:59:23.890Z,18.80
2023-05-14T02:00:26.754Z,18.80
2023-05-14T02:01:29.333Z,18.90
2023-05-14T02:02:31.984Z,18.90
2023-05-14T02:03:35.060Z,18.80
2023-05-14T02:04:37.658Z,18.90
2023-05-14T02:05:40.336Z,18.90
2023-05-14T02:06:43.100Z,18.90
2023-05-14T02:07:45.621Z,18.90
2023-05-14T02:08:48.122Z,18.90
2023-05-14T02:09:50.700Z,18.90
2023-05-14T02:10:53.627Z,18.90
2023-05-14T02:11:56.135Z,18.90
2023-05-14T02:12:59.285Z,18.90
2023-05-14T02:14:01.762Z,18.90
2023-05-14T02:15:05.026Z,18.90
2023-05-14T02:16:09.223Z,18.90
2023-05-14T02:17:16.480Z,18.90
2023-05-14T02:18:19.377Z,18.90
2023-05-14T02:19:21.854Z,18.90
2023-05-14T02:20:25.190Z,18.90
2023-05-14T02:21:28.041Z,18.80
2023-05-14T02:22:30.536Z,18.70
2023-05-14T02:23:40.895Z,18.60
2023-05-14T02:24:44.261Z,18.60
2023-05-14T02:25:47.152Z,18.60
2023-05-14T02:26:49.998Z,18.60
2023-05-14T02:27:54.101Z,18.60
2023-05-14T02:28:56.637Z,18.60
2023-05-14T02:30:01.172Z,18.60
2023-05-14T02:31:04.082Z,18.60
2023-05-14T02:32:07.123Z,18.60
2023-05-14T02:33:10.329Z,18.60
2023-05-14T02:34:14.033Z,18.60
2023-05-14T02:35:18.470Z,18.60
2023-05-14T02:36:21.058Z,18.50
2023-05-14T02:37:23.773Z,18.60
2023-05-14T02:38:27.712Z,18.60
2023-05-14T02:39:32.286Z,18.50
2023-05-14T02:40:37.016Z,18.50
2023-05-14T02:41:39.630Z,18.50
2023-05-14T02:42:42.188Z,18.50
2023-05-14T02:43:44.686Z,18.60
2023-05-14T02:44:47.527Z,18.60
2023-05-14T02:45:52.253Z,18.60
2023-05-14T02:46:55.074Z,18.60
2023-05-14T02:47:57.782Z,18.60
2023-05-14T02:49:00.371Z,18.60
2023-05-14T02:50:05.280Z,18.70
2023-05-14T02:51:10.073Z,18.70
2023-05-14T02:52:12.653Z,18.80
2023-05-14T02:54:18.414Z,18.70
2023-05-14T02:54:51.631Z,18.80
2023-05-14T02:55:54.482Z,18.70
2023-05-14T02:56:57.002Z,18.70
2023-05-14T02:58:03.246Z,18.70
2023-05-14T02:59:14.207Z,18.60
2023-05-14T03:00:21.637Z,18.60
2023-05-14T03:01:26.625Z,18.60
2023-05-14T03:02:50.115Z,18.60
2023-05-14T03:04:22.210Z,18.60
2023-05-14T03:05:24.922Z,18.50
2023-05-14T03:06:27.344Z,18.50
2023-05-14T03:07:30.265Z,18.50
2023-05-14T03:08:37.491Z,18.50
2023-05-14T03:09:40.185Z,18.50
2023-05-14T03:10:42.893Z,18.50
2023-05-14T03:11:45.919Z,18.50
2023-05-14T03:12:48.735Z,18.50
2023-05-14T03:13:51.719Z,18.50
2023-05-14T03:14:54.824Z,18.50
2023-05-14T03:15:57.529Z,18.50
2023-05-14T03:17:05.297Z,18.50
2023-05-14T03:18:08.727Z,18.50
2023-05-14T03:19:11.358Z,18.50
2023-05-14T03:20:13.782Z,18.50
2023-05-14T03:21:16.965Z,18.50
2023-05-14T03:22:21.819Z,18.50
2023-05-14T03:23:27.206Z,18.40
2023-05-14T03:24:32.719Z,18.30
2023-05-14T03:25:35.633Z,18.30
2023-05-14T03:26:38.281Z,18.20
2023-05-14T03:27:40.915Z,18.20
2023-05-14T03:28:44.621Z,18.20
2023-05-14T03:29:47.320Z,18.20
2023-05-14T03:30:49.829Z,18.10
2023-05-14T03:31:53.371Z,18.10
2023-05-14T03:32:55.951Z,18.10
2023-05-14T03:33:58.615Z,18.00
2023-05-14T03:35:01.294Z,18.00
2023-05-14T03:36:04.019Z,18.00
2023-05-14T03:37:06.899Z,18.00
2023-05-14T03:38:10.123Z,18.00
2023-05-14T03:39:15.544Z,18.00
2023-05-14T03:40:18.243Z,17.90
2023-05-14T03:41:21.884Z,17.90
2023-05-14T03:42:24.613Z,17.90
2023-05-14T03:43:27.138Z,17.80
2023-05-14T03:44:30.116Z,17.80
2023-05-14T03:45:33.557Z,17.80
2023-05-14T03:46:36.168Z,17.80
2023-05-14T03:47:38.730Z,17.70
2023-05-14T03:48:42.544Z,17.70
2023-05-14T03:49:45.103Z,17.70
2023-05-14T03:50:49.105Z,17.70
2023-05-14T03:51:51.973Z,17.70
2023-05-14T03:52:55.217Z,17.70
2023-05-14T03:53:59.911Z,17.70
2023-05-14T03:55:04.555Z,17.70
2023-05-14T03:56:09.379Z,17.70
2023-05-14T03:57:12.211Z,17.70
2023-05-14T03:58:14.729Z,17.60
2023-05-14T03:59:17.450Z,17.60
2023-05-14T04:00:20.073Z,17.60
2023-05-14T04:01:27.021Z,17.60
2023-05-14T04:02:29.744Z,17.60
2023-05-14T04:03:35.324Z,17.60
2023-05-14T04:04:38.547Z,17.60
2023-05-14T04:05:41.727Z,17.60
2023-05-14T04:06:44.406Z,17.60
2023-05-14T04:07:46.991Z,17.50
2023-05-14T04:08:49.571Z,17.50
2023-05-14T04:09:52.125Z,17.50
2023-05-14T04:10:54.690Z,17.40
2023-05-14T04:11:58.697Z,17.40
2023-05-14T04:13:01.247Z,17.40
2023-05-14T04:14:07.795Z,17.50
2023-05-14T04:15:11.283Z,17.60
2023-05-14T04:16:14.407Z,17.60
2023-05-14T04:17:16.832Z,17.70
2023-05-14T04:18:19.209Z,17.70
2023-05-14T04:19:21.705Z,17.80
2023-05-14T04:20:24.331Z,18.10
2023-05-14T04:21:27.518Z,18.30
2023-05-14T04:22:29.952Z,18.50
2023-05-14T04:23:34.180Z,18.60
2023-05-14T04:24:36.985Z,18.90
2023-05-14T04:25:39.718Z,19.00
2023-05-14T04:26:42.510Z,19.10
2023-05-14T04:27:46.093Z,19.10
2023-05-14T04:28:49.156Z,19.30
2023-05-14T04:29:51.892Z,19.30
2023-05-14T04:30:54.411Z,19.40
2023-05-14T04:31:56.863Z,19.40
2023-05-14T04:32:59.614Z,19.50
2023-05-14T04:34:02.580Z,19.50
2023-05-14T04:35:06.427Z,19.60
2023-05-14T04:36:08.972Z,19.60
2023-05-14T04:37:11.503Z,19.70
2023-05-14T04:38:14.583Z,19.70
2023-05-14T04:39:17.552Z,19.70
2023-05-14T04:40:20.183Z,19.80
2023-05-14T04:41:25.188Z,19.80
2023-05-14T04:42:27.673Z,19.80
2023-05-14T04:43:30.246Z,19.80
2023-05-14T04:44:34.399Z,19.90
2023-05-14T04:45:37.278Z,19.90
2023-05-14T04:46:42.442Z,19.90
2023-05-14T04:47:46.016Z,19.90
2023-05-14T04:48:49.148Z,19.90
2023-05-14T04:49:51.627Z,20.00
2023-05-14T04:50:54.200Z,20.00
2023-05-14T04:51:56.790Z,20.00
2023-05-14T04:52:59.400Z,20.00
2023-05-14T04:54:02.132Z,20.00
2023-05-14T04:55:05.202Z,20.10
2023-05-14T04:56:08.920Z,20.10
2023-05-14T04:57:11.417Z,20.10
2023-05-14T04:58:13.806Z,20.10
2023-05-14T04:59:18.933Z,20.10
2023-05-14T05:00:22.470Z,20.10
2023-05-14T05:01:26.014Z,20.10
2023-05-14T05:02:28.705Z,20.10
2023-05-14T05:03:31.396Z,20.20
2023-05-14T05:04:34.436Z,20.10
2023-05-14T05:05:37.896Z,20.20
2023-05-14T05:06:40.485Z,20.20
2023-05-14T05:07:43.532Z,20.20
2023-05-14T05:08:46.084Z,20.20
2023-05-14T05:09:48.767Z,20.20
2023-05-14T05:10:51.386Z,20.30
2023-05-14T05:11:53.901Z,20.30
2023-05-14T05:12:56.639Z,20.20
2023-05-14T05:13:59.045Z,20.30
2023-05-14T05:15:03.498Z,20.30
2023-05-14T05:16:07.476Z,20.30
2023-05-14T05:17:11.327Z,20.30
2023-05-14T05:18:14.005Z,20.20
2023-05-14T05:19:17.114Z,20.10
2023-05-14T05:20:19.825Z,20.10
2023-05-14T05:21:24.218Z,20.10
2023-05-14T05:22:26.958Z,20.10
2023-05-14T05:23:30.168Z,20.10
2023-05-14T05:24:33.916Z,20.20
2023-05-14T05:25:36.734Z,20.20
2023-05-14T05:26:39.572Z,20.20
2023-05-14T05:27:42.522Z,20.30
2023-05-14T05:28:45.066Z,20.30
2023-05-14T05:29:47.690Z,20.30
2023-05-14T05:30:50.196Z,20.40
2023-05-14T05:31:53.937Z,20.40
2023-05-14T05:32:58.185Z,20.40
2023-05-14T05:34:01.413Z,20.50
2023-05-14T05:35:04.249Z,20.50
2023-05-14T05:36:07.827Z,20.50
2023-05-14T05:37:12.958Z,20.60
2023-05-14T05:38:17.311Z,20.60
2023-05-14T05:39:19.936Z,20.60
2023-05-14T05:40:22.768Z,20.60
2023-05-14T05:41:26.510Z,20.60
2023-05-14T05:42:29.071Z,20.60
2023-05-14T05:43:33.490Z,20.60
2023-05-14T05:44:35.975Z,20.60
2023-05-14T05:45:38.438Z,20.60
2023-05-14T05:46:41.315Z,20.70
2023-05-14T05:47:44.029Z,20.70
2023-05-14T05:48:46.523Z,20.70
2023-05-14T05:49:50.306Z,20.70
2023-05-14T05:50:53.175Z,20.70
2023-05-14T05:51:55.961Z,20.70
2023-05-14T05:53:01.443Z,20.70
2023-05-14T05:54:16.065Z,20.70
2023-05-14T05:55:19.724Z,20.70
2023-05-14T05:56:22.306Z,20.70
2023-05-14T05:57:27.241Z,20.70
2023-05-14T05:58:30.361Z,20.80
2023-05-14T05:59:33.891Z,20.80
2023-05-14T06:00:36.974Z,20.70
2023-05-14T06:01:41.352Z,20.70
2023-05-14T06:02:44.488Z,20.70
2023-05-14T06:03:48.671Z,20.70
2023-05-14T06:04:53.577Z,20.70
2023-05-14T06:05:56.028Z,20.70
2023-05-14T06:06:58.642Z,20.70
2023-05-14T06:08:01.968Z,20.70
2023-05-14T06:09:04.748Z,20.70
2023-05-14T06:10:08.155Z,20.80
2023-05-14T06:11:11.585Z,20.80
2023-05-14T06:12:14.106Z,20.80
2023-05-14T06:13:16.579Z,20.80
2023-05-14T06:14:21.401Z,20.80
2023-05-14T06:15:24.063Z,20.80
2023-05-14T06:16:26.570Z,20.80
2023-05-14T06:17:29.099Z,20.80
2023-05-14T06:18:31.834Z,20.80
2023-05-14T06:19:34.384Z,20.80
2023-05-14T06:20:36.914Z,20.80
2023-05-14T06:21:39.456Z,20.80
2023-05-14T06:22:41.923Z,20.80
2023-05-14T06:23:44.806Z,20.80
2023-05-14T06:24:48.526Z,20.80
2023-05-14T06:25:51.063Z,20.80
2023-05-14T06:26:53.517Z,20.80
2023-05-14T06:27:56.437Z,20.80
2023-05-14T06:29:03.503Z,20.80
2023-05-14T06:30:08.057Z,20.80
2023-05-14T06:31:10.770Z,20.70
2023-05-14T06:32:15.554Z,20.70
2023-05-14T06:33:20.027Z,20.80
2023-05-14T06:34:23.421Z,20.80
2023-05-14T06:35:25.783Z,20.80
2023-05-14T06:36:28.275Z,20.90
2023-05-14T06:37:31.351Z,20.90
2023-05-14T06:38:33.818Z,20.80
2023-05-14T06:39:37.585Z,20.80
2023-05-14T06:40:40.153Z,20.80
2023-05-14T06:41:42.680Z,20.80
2023-05-14T06:42:50.317Z,20.80
2023-05-14T06:43:53.529Z,20.90
2023-05-14T06:44:56.218Z,20.90
2023-05-14T06:45:58.687Z,20.90
2023-05-14T06:47:01.627Z,20.90
2023-05-14T06:48:04.785Z,20.90
2023-05-14T06:49:07.498Z,20.90
2023-05-14T06:50:12.153Z,20.90
2023-05-14T06:51:14.608Z,21.00
2023-05-14T06:52:19.463Z,21.00
2023-05-14T06:53:22.628Z,21.00
2023-05-14T06:54:25.451Z,21.00
2023-05-14T06:55:28.052Z,21.00
2023-05-14T06:56:30.653Z,21.00
2023-05-14T06:57:34.628Z,21.00
2023-05-14T06:58:36.995Z,21.00
2023-05-14T06:59:39.324Z,20.80
2023-05-14T07:00:41.885Z,20.60
2023-05-14T07:01:44.376Z,20.60
2023-05-14T07:02:46.876Z,20.50
2023-05-14T07:03:49.495Z,20.50
2023-05-14T07:04:52.211Z,20.40
2023-05-14T07:05:55.182Z,20.40
2023-05-14T07:06:57.686Z,20.30
2023-05-14T07:08:00.357Z,20.40
2023-05-14T07:09:03.238Z,20.30
2023-05-14T07:10:08.166Z,20.40
2023-05-14T07:11:13.444Z,20.30
2023-05-14T07:12:15.877Z,20.20
2023-05-14T07:13:18.520Z,20.20
2023-05-14T07:14:21.561Z,20.10
2023-05-14T07:15:24.408Z,20.10
2023-05-14T07:16:26.970Z,20.10
2023-05-14T07:17:30.218Z,20.10
2023-05-14T07:18:32.735Z,20.00
2023-05-14T07:19:35.201Z,20.00
2023-05-14T07:20:37.662Z,20.00
2023-05-14T07:21:40.124Z,20.00
2023-05-14T07:22:43.550Z,19.90
2023-05-14T07:23:45.993Z,19.90
2023-05-14T07:24:49.457Z,19.90
2023-05-14T07:25:52.397Z,20.00
2023-05-14T07:26:57.305Z,19.90
2023-05-14T07:28:00.909Z,19.90
2023-05-14T07:29:03.376Z,19.90
2023-05-14T07:30:07.125Z,19.90
2023-05-14T07:31:10.534Z,19.80
2023-05-14T07:32:15.430Z,19.90
2023-05-14T07:33:18.640Z,19.90
2023-05-14T07:34:21.179Z,19.90
2023-05-14T07:35:23.810Z,19.90
2023-05-14T07:36:26.342Z,19.80
2023-05-14T07:37:28.895Z,19.70
2023-05-14T07:38:32.724Z,19.70
2023-05-14T07:39:35.235Z,19.70
2023-05-14T07:40:37.658Z,19.70
2023-05-14T07:41:40.321Z,19.70
2023-05-14T07:42:42.833Z,19.70
2023-05-14T07:43:45.248Z,19.80
2023-05-14T07:44:47.775Z,19.80
2023-05-14T07:45:50.275Z,19.90
2023-05-14T07:46:52.695Z,19.90
2023-05-14T07:47:55.423Z,19.90
2023-05-14T07:48:57.867Z,19.90
2023-05-14T07:50:00.403Z,20.00
2023-05-14T07:51:02.870Z,20.00
2023-05-14T07:52:05.575Z,20.00
2023-05-14T07:53:08.084Z,20.10
2023-05-14T07:54:11.496Z,20.10
2023-05-14T07:55:15.199Z,20.00
2023-05-14T07:56:18.118Z,20.00
2023-05-14T07:57:20.855Z,20.00
2023-05-14T07:58:24.990Z,20.00
2023-05-14T07:59:27.445Z,20.00
2023-05-14T08:00:29.897Z,20.00
2023-05-14T08:01:32.322Z,20.00
2023-05-14T08:02:34.814Z,20.00
2023-05-14T08:03:37.481Z,20.10
2023-05-14T08:04:40.086Z,20.10
2023-05-14T08:05:42.565Z,20.10
2023-05-14T08:06:44.985Z,20.10
2023-05-14T08:07:48.088Z,20.10
2023-05-14T08:08:50.491Z,20.20
2023-05-14T08:09:53.044Z,20.20
2023-05-14T08:10:56.193Z,20.20
2023-05-14T08:11:58.655Z,20.30
2023-05-14T08:13:01.138Z,20.30
2023-05-14T08:14:03.480Z,20.30
2023-05-14T08:15:07.711Z,20.30
2023-05-14T08:16:10.643Z,20.40
2023-05-14T08:17:13.396Z,20.40
2023-05-14T08:18:15.930Z,20.40
2023-05-14T08:19:19.558Z,20.40
2023-05-14T08:20:23.361Z,20.40
2023-05-14T08:21:26.413Z,20.50
2023-05-14T08:22:30.032Z,20.60
2023-05-14T08:23:32.480Z,20.50
2023-05-14T08:24:34.876Z,20.50
2023-05-14T08:25:38.370Z,20.50
2023-05-14T08:26:40.779Z,20.50
2023-05-14T08:27:46.065Z,20.50
2023-05-14T08:28:49.059Z,20.60
2023-05-14T08:29:52.544Z,20.70
2023-05-14T08:30:55.139Z,20.80
2023-05-14T08:31:58.080Z,20.80
2023-05-14T08:33:01.903Z,20.80
2023-05-14T08:34:04.589Z,20.80
2023-05-14T08:35:08.824Z,20.90
2023-05-14T08:36:11.157Z,20.90
2023-05-14T08:37:13.710Z,20.80
2023-05-14T08:38:16.218Z,20.90
2023-05-14T08:39:18.578Z,20.90
2023-05-14T08:40:21.345Z,21.00
2023-05-14T08:41:23.819Z,20.90
2023-05-14T08:42:28.655Z,21.00
2023-05-14T08:43:40.678Z,21.00
2023-05-14T08:44:44.111Z,21.00
2023-05-14T08:45:48.250Z,21.00
2023-05-14T08:46:51.910Z,21.10
2023-05-14T08:47:57.083Z,21.10
2023-05-14T08:49:31.754Z,21.10
2023-05-14T08:50:36.092Z,21.10
2023-05-14T08:51:38.894Z,21.10
2023-05-14T08:52:41.378Z,21.10
2023-05-14T08:53:44.433Z,21.10
2023-05-14T08:54:48.375Z,21.10
2023-05-14T08:55:51.580Z,21.10
2023-05-14T08:56:54.434Z,21.10
2023-05-14T08:57:56.929Z,21.10
2023-05-14T08:58:59.713Z,21.20
2023-05-14T09:00:08.377Z,21.20
2023-05-14T09:01:11.231Z,21.20
2023-05-14T09:02:16.901Z,21.20
2023-05-14T09:03:20.238Z,21.20
2023-05-14T09:04:24.850Z,21.20
2023-05-14T09:05:27.867Z,21.20
2023-05-14T09:06:32.882Z,21.20
2023-05-14T09:07:35.727Z,21.20
2023-05-14T09:08:39.388Z,21.20
2023-05-14T09:09:42.045Z,21.20
2023-05-14T09:10:44.472Z,21.10
2023-05-14T09:11:47.365Z,21.20
2023-05-14T09:12:50.159Z,21.20
2023-05-14T09:13:54.812Z,21.20
2023-05-14T09:15:00.159Z,21.20
2023-05-14T09:16:03.546Z,21.30
2023-05-14T09:17:06.274Z,21.30
2023-05-14T09:18:10.108Z,21.30
2023-05-14T09:19:13.814Z,21.20
2023-05-14T09:20:16.894Z,21.20
2023-05-14T09:21:20.493Z,21.30
2023-05-14T09:22:23.022Z,21.30
2023-05-14T09:23:33.671Z,21.30
2023-05-14T09:24:36.234Z,21.30
2023-05-14T09:25:42.336Z,21.30
2023-05-14T09:26:44.651Z,21.30
2023-05-14T09:27:50.308Z,21.20
2023-05-14T09:28:57.696Z,21.20
2023-05-14T09:30:12.415Z,21.30
2023-05-14T09:31:15.044Z,21.30
2023-05-14T09:32:18.159Z,21.30
2023-05-14T09:33:28.243Z,21.30
2023-05-14T09:34:35.774Z,21.30
2023-05-14T09:35:41.760Z,21.30
2023-05-14T09:36:44.048Z,21.40
2023-05-14T09:37:51.643Z,21.40
2023-05-14T09:38:58.004Z,21.30
2023-05-14T09:40:06.907Z,21.30
2023-05-14T09:41:10.070Z,21.30
2023-05-14T09:42:12.913Z,21.20
2023-05-14T09:43:15.554Z,21.30
2023-05-14T09:44:22.900Z,21.30
2023-05-14T09:45:26.371Z,21.40
2023-05-14T09:46:31.472Z,21.40
2023-05-14T09:47:35.283Z,21.40
2023-05-14T09:48:37.803Z,21.40
2023-05-14T09:49:40.403Z,21.40
2023-05-14T09:50:46.868Z,21.40
2023-05-14T09:51:50.524Z,21.40
2023-05-14T09:52:55.682Z,21.40
2023-05-14T09:53:59.143Z,21.40
2023-05-14T09:55:02.662Z,21.40
2023-05-14T09:56:05.514Z,21.40
2023-05-14T09:57:07.935Z,21.40
2023-05-14T09:58:16.308Z,21.40
2023-05-14T09:59:20.778Z,21.40
2023-05-14T10:00:24.715Z,21.40
2023-05-14T10:01:29.379Z,21.40
2023-05-14T10:02:37.653Z,21.40
2023-05-14T10:03:42.299Z,21.30
2023-05-14T10:04:45.522Z,21.40
2023-05-14T10:05:51.091Z,21.40
2023-05-14T10:06:54.241Z,21.30
2023-05-14T10:07:59.301Z,21.30
2023-05-14T10:09:05.623Z,21.30
2023-05-14T10:10:13.488Z,21.20
2023-05-14T10:11:24.937Z,21.20
2023-05-14T10:12:33.550Z,21.30
2023-05-14T10:13:42.960Z,21.30
2023-05-14T10:14:53.373Z,21.30
2023-05-14T10:16:11.344Z,21.30
2023-05-14T10:17:18.764Z,21.30
2023-05-14T10:18:24.062Z,21.30
2023-05-14T10:19:27.994Z,21.30
2023-05-14T10:20:32.709Z,21.30
2023-05-14T10:21:36.987Z,21.30
2023-05-14T10:22:40.013Z,21.40
2023-05-14T10:23:43.316Z,21.40
2023-05-14T10:24:47.723Z,21.30
2023-05-14T10:25:50.766Z,21.40
2023-05-14T10:26:59.670Z,21.40
2023-05-14T10:28:02.701Z,21.40
2023-05-14T10:29:14.846Z,21.40
2023-05-14T10:30:22.905Z,21.50
2023-05-14T10:31:51.263Z,21.40
2023-05-14T10:33:12.075Z,21.50
2023-05-14T10:34:34.609Z,21.50
2023-05-14T10:35:55.670Z,21.40
2023-05-14T10:37:30.285Z,21.40
2023-05-14T10:38:37.699Z,21.50
2023-05-14T10:40:02.273Z,21.40
2023-05-14T10:41:11.766Z,21.30
2023-05-14T10:42:32.215Z,21.30
2023-05-14T10:43:37.814Z,21.30
2023-05-14T10:44:52.065Z,21.50
2023-05-14T10:45:55.819Z,21.40
2023-05-14T10:46:59.264Z,21.50
2023-05-14T10:48:02.891Z,21.50
2023-05-14T10:49:06.250Z,21.50
2023-05-14T10:50:14.265Z,21.50
2023-05-14T10:51:20.803Z,21.50
2023-05-14T10:52:24.992Z,21.40
2023-05-14T10:53:36.212Z,21.50
2023-05-14T10:54:39.362Z,21.50
2023-05-14T10:55:43.113Z,21.50
2023-05-14T10:56:49.652Z,21.50
2023-05-14T10:57:58.860Z,21.50
2023-05-14T10:59:02.549Z,21.50
2023-05-14T11:00:10.652Z,21.50
2023-05-14T11:01:14.117Z,21.50
2023-05-14T11:02:25.361Z,21.50
2023-05-14T11:03:33.838Z,21.50
2023-05-14T11:04:37.441Z,21.50
2023-05-14T11:05:41.193Z,21.40
2023-05-14T11:06:44.890Z,21.40
2023-05-14T11:07:51.160Z,21.50
2023-05-14T11:08:54.509Z,21.50
2023-05-14T11:10:08.892Z,21.50
2023-05-14T11:11:14.030Z,21.60
2023-05-14T11:12:17.163Z,21.60
2023-05-14T11:13:20.380Z,21.60
2023-05-14T11:14:23.121Z,21.60
2023-05-14T11:15:26.950Z,21.50
2023-05-14T11:16:31.348Z,21.50
2023-05-14T11:17:36.603Z,21.50
2023-05-14T11:18:41.733Z,21.50
2023-05-14T11:19:45.813Z,21.50
2023-05-14T11:20:48.224Z,21.60
2023-05-14T11:21:51.177Z,21.60
2023-05-14T11:22:53.634Z,21.60
2023-05-14T11:23:56.977Z,21.50
2023-05-14T11:24:59.426Z,21.60
2023-05-14T11:26:02.104Z,21.60
2023-05-14T11:27:05.054Z,21.60
2023-05-14T11:28:07.661Z,21.60
2023-05-14T11:29:10.712Z,21.60
2023-05-14T11:30:18.597Z,21.60
2023-05-14T11:31:23.727Z,21.60
2023-05-14T11:32:26.654Z,21.50
2023-05-14T11:33:29.756Z,21.60
2023-05-14T11:34:33.606Z,21.60
2023-05-14T11:35:37.577Z,21.60
2023-05-14T11:36:40.448Z,21.50
2023-05-14T11:37:49.407Z,21.60
2023-05-14T11:38:52.368Z,21.60
2023-05-14T11:39:58.649Z,21.60
2023-05-14T11:41:01.310Z,21.70
2023-05-14T11:42:05.540Z,21.60
2023-05-14T11:43:08.445Z,21.70
2023-05-14T11:44:11.148Z,21.70
2023-05-14T11:45:24.228Z,21.60
2023-05-14T11:46:27.530Z,21.60
2023-05-14T11:47:31.612Z,21.60
2023-05-14T11:48:34.229Z,21.60
2023-05-14T11:49:38.013Z,21.60
2023-05-14T11:50:44.549Z,21.50
2023-05-14T11:51:46.946Z,21.60
2023-05-14T11:52:50.836Z,21.60
2023-05-14T11:53:54.450Z,21.60
2023-05-14T11:54:56.934Z,21.50
2023-05-14T11:55:59.502Z,21.50
2023-05-14T11:57:11.432Z,21.60
2023-05-14T11:58:14.056Z,21.60
2023-05-14T11:59:19.205Z,21.60
2023-05-14T12:00:23.102Z,21.60
2023-05-14T12:01:25.810Z,21.70
2023-05-14T12:02:29.562Z,21.70
2023-05-14T12:03:32.275Z,21.70
2023-05-14T12:04:34.983Z,21.60
2023-05-14T12:05:41.201Z,21.60
2023-05-14T12:06:43.583Z,21.60
2023-05-14T12:07:46.844Z,21.70
2023-05-14T12:08:49.974Z,21.60
2023-05-14T12:09:52.546Z,21.70
2023-05-14T12:10:55.808Z,21.70
2023-05-14T12:11:58.249Z,21.70
2023-05-14T12:13:00.685Z,21.70
2023-05-14T12:14:12.143Z,21.60
2023-05-14T12:15:17.094Z,21.70
2023-05-14T12:16:21.595Z,21.60
2023-05-14T12:17:25.210Z,21.60
2023-05-14T12:18:30.861Z,21.70
2023-05-14T12:19:33.397Z,21.70
2023-05-14T12:20:36.130Z,21.70
2023-05-14T12:21:39.403Z,21.70
2023-05-14T12:22:42.593Z,21.70
2023-05-14T12:23:45.245Z,21.60
2023-05-14T12:24:55.460Z,21.60
2023-05-14T12:26:15.928Z,21.60
2023-05-14T12:27:30.292Z,21.60
2023-05-14T12:28:36.927Z,21.60
2023-05-14T12:29:53.431Z,21.60
2023-05-14T12:30:58.887Z,21.50
2023-05-14T12:32:04.090Z,21.60
2023-05-14T12:33:10.847Z,21.60
2023-05-14T12:34:18.105Z,21.60
2023-05-14T12:35:24.687Z,21.60
2023-05-14T12:36:36.574Z,21.60
2023-05-14T12:37:44.758Z,21.60
2023-05-14T12:38:47.452Z,21.60
2023-05-14T12:39:50.152Z,21.60
2023-05-14T12:40:54.385Z,21.60
2023-05-14T12:41:58.680Z,21.60
2023-05-14T12:43:01.329Z,21.60
2023-05-14T12:44:08.493Z,21.60
2023-05-14T12:45:13.551Z,21.60
2023-05-14T12:46:17.333Z,21.60
2023-05-14T12:47:21.593Z,21.60
2023-05-14T12:48:25.148Z,21.60
2023-05-14T12:49:28.034Z,21.60
2023-05-14T12:50:32.774Z,21.60
2023-05-14T12:51:35.224Z,21.60
2023-05-14T12:52:39.738Z,21.60
2023-05-14T12:53:43.199Z,21.60
2023-05-14T12:54:45.988Z,21.60
2023-05-14T12:55:49.721Z,21.70
2023-05-14T12:56:52.257Z,21.70
2023-05-14T12:57:54.851Z,21.70
2023-05-14T12:58:57.408Z,21.80
2023-05-14T12:59:59.916Z,21.70
2023-05-14T13:01:02.564Z,21.70
2023-05-14T13:02:05.354Z,21.70
2023-05-14T13:03:08.115Z,21.70
2023-05-14T13:04:14.420Z,21.70
2023-05-14T13:05:17.069Z,21.70
2023-05-14T13:06:19.533Z,21.70
2023-05-14T13:07:22.062Z,21.80
2023-05-14T13:08:26.333Z,21.80
2023-05-14T13:09:29.276Z,21.70
2023-05-14T13:10:32.784Z,21.80
2023-05-14T13:11:36.222Z,21.80
2023-05-14T13:12:38.829Z,21.80
2023-05-14T13:13:41.530Z,21.80
2023-05-14T13:14:44.424Z,21.90
2023-05-14T13:15:47.085Z,21.90
2023-05-14T13:16:49.660Z,21.80
2023-05-14T13:17:52.192Z,21.90
2023-05-14T13:18:55.418Z,21.90
2023-05-14T13:19:58.236Z,21.90
2023-05-14T13:21:03.759Z,21.90
2023-05-14T13:22:06.442Z,21.90
2023-05-14T13:23:09.045Z,21.90
2023-05-14T13:24:11.538Z,21.90
2023-05-14T13:25:14.120Z,21.90
2023-05-14T13:26:16.595Z,21.90
2023-05-14T13:27:19.129Z,21.80
2023-05-14T13:28:21.543Z,21.80
2023-05-14T13:29:24.586Z,21.80
2023-05-14T13:30:27.061Z,21.80
2023-05-14T13:31:29.617Z,21.80
2023-05-14T13:32:32.744Z,21.80
2023-05-14T13:33:37.398Z,21.80
2023-05-14T13:34:40.109Z,21.80
2023-05-14T13:35:42.671Z,21.70
2023-05-14T13:36:47.062Z,21.80
2023-05-14T13:37:49.619Z,21.70
2023-05-14T13:38:52.260Z,21.70
2023-05-14T13:39:55.129Z,21.70
2023-05-14T13:41:02.194Z,21.70
2023-05-14T13:42:07.289Z,21.70
2023-05-14T13:43:10.594Z,21.70
2023-05-14T13:44:13.186Z,21.80
2023-05-14T13:45:15.887Z,21.80
2023-05-14T13:46:18.658Z,21.80
2023-05-14T13:47:21.368Z,21.90
2023-05-14T13:48:25.399Z,21.90